createdAt,value
2023-11-01T00:04:04.591Z,54.3
2023-11-01T00:09:56.051Z,54.3
2023-11-01T00:15:32.040Z,54.1
2023-11-01T00:21:08.832Z,54.2
2023-11-01T00:27:02.508Z,54.2
2023-11-01T00:32:38.917Z,54.1
2023-11-01T00:38:16.022Z,54
2023-11-01T00:43:52.164Z,53.9
2023-11-01T00:49:28.186Z,54
2023-11-01T00:55:05.062Z,53.9
2023-11-01T01:00:41.704Z,53.9
2023-11-01T01:06:04.294Z,53.9
2023-11-01T01:11:41.501Z,53.8
2023-11-01T01:17:33.368Z,53.8
2023-11-01T01:23:10.622Z,53.8
2023-11-01T01:29:03.088Z,53.7
2023-11-01T01:34:39.609Z,53.7
2023-11-01T01:40:31.058Z,53.6
2023-11-01T01:46:08.014Z,53.6
2023-11-01T01:51:51.795Z,53.6
2023-11-01T01:57:11.940Z,53.5
2023-11-01T02:02:45.118Z,53.4
2023-11-01T02:08:24.357Z,53.4
2023-11-01T02:14:00.581Z,53.4
2023-11-01T02:19:37.029Z,53.4
2023-11-01T02:25:12.786Z,53.3
2023-11-01T02:30:48.882Z,53.3
2023-11-01T02:36:25.756Z,53.3
2023-11-01T02:42:17.424Z,53.2
2023-11-01T02:47:54.075Z,53.1
2023-11-01T02:53:30.757Z,53.1
2023-11-01T02:58:50.942Z,53.1
2023-11-01T03:04:12.235Z,53
2023-11-01T03:09:48.664Z,52.9
2023-11-01T03:15:24.879Z,52.9
2023-11-01T03:21:01.489Z,52.9
2023-11-01T03:26:37.512Z,52.9
2023-11-01T03:32:13.817Z,52.8
2023-11-01T03:38:05.910Z,52.8
2023-11-01T03:43:42.533Z,52.8
2023-11-01T03:49:34.585Z,52.8
2023-11-01T03:55:11.353Z,52.7
2023-11-01T04:00:48.288Z,52.6
2023-11-01T04:06:25.962Z,52.6
2023-11-01T04:12:17.308Z,52.6
2023-11-01T04:17:53.520Z,52.6
2023-11-01T04:23:29.247Z,52.5
2023-11-01T04:29:05.104Z,52.4
2023-11-01T04:34:42.296Z,52.4
2023-11-01T04:45:39.541Z,52.3
2023-11-01T04:51:19.629Z,52.3
2023-11-01T04:56:57.162Z,52.3
2023-11-01T05:02:33.232Z,52.2
2023-11-01T05:08:26.844Z,52.2
2023-11-01T05:14:02.724Z,52.2
2023-11-01T05:19:39.646Z,52.1
2023-11-01T05:25:16.115Z,52.1
2023-11-01T05:30:53.170Z,52.1
2023-11-01T05:36:32.284Z,52
2023-11-01T05:52:20.346Z,51.9
2023-11-01T05:58:11.973Z,51.8
2023-11-01T06:03:33.517Z,51.8
2023-11-01T06:09:10.435Z,51.8
2023-11-01T06:14:31.032Z,51.7
2023-11-01T06:20:09.580Z,51.7
2023-11-01T06:25:29.630Z,51.6
2023-11-01T06:31:06.912Z,51.6
2023-11-01T06:36:44.551Z,51.6
2023-11-01T06:42:21.460Z,51.5
2023-11-01T06:47:58.896Z,51.5
2023-11-01T06:53:35.811Z,51.4
2023-11-01T06:58:59.390Z,51.4
2023-11-01T07:04:21.911Z,51.4
2023-11-01T07:09:57.998Z,51.4
2023-11-01T07:15:18.159Z,51.3
2023-11-01T07:20:54.984Z,51.3
2023-11-01T07:26:16.430Z,51.3
2023-11-01T07:31:52.491Z,51.3
2023-11-01T07:37:29.067Z,51.1
2023-11-01T07:43:05.005Z,51.1
2023-11-01T07:48:43.013Z,51.1
2023-11-01T07:54:19.330Z,51.1
2023-11-01T07:59:40.068Z,51.1
2023-11-01T08:05:17.950Z,51
2023-11-01T08:10:41.513Z,51
2023-11-01T08:16:03.967Z,50.9
2023-11-01T08:21:09.645Z,50.9
2023-11-01T08:26:15.161Z,50.9
2023-11-01T08:31:52.210Z,50.8
2023-11-01T08:37:14.129Z,50.8
2023-11-01T08:42:35.372Z,50.8
2023-11-01T08:48:27.925Z,50.8
2023-11-01T08:53:34.153Z,50.8
2023-11-01T08:58:39.340Z,50.7
2023-11-01T09:04:35.063Z,50.7
2023-11-01T09:09:39.664Z,50.7
2023-11-01T09:15:07.745Z,50.8
2023-11-01T09:20:15.329Z,50.7
2023-11-01T09:25:52.078Z,50.7
2023-11-01T09:31:13.300Z,50.7
2023-11-01T09:36:19.665Z,50.7
2023-11-01T09:41:40.344Z,50.7
2023-11-01T09:47:02.098Z,51.1
2023-11-01T09:52:23.726Z,51.5
2023-11-01T09:58:00.303Z,51.8
2023-11-01T10:03:21.778Z,52.3
2023-11-01T10:08:42.662Z,52.7
2023-11-01T10:13:51.658Z,53.1
2023-11-01T10:18:57.234Z,53.7
2023-11-01T10:24:03.631Z,54.3
2023-11-01T10:29:25.671Z,54.7
2023-11-01T10:34:51.013Z,55.1
2023-11-01T10:40:11.990Z,55.6
2023-11-01T10:45:51.170Z,55.9
2023-11-01T10:51:31.919Z,56.4
2023-11-01T10:57:10.323Z,56.8
2023-11-01T11:02:46.737Z,57.2
2023-11-01T11:08:30.072Z,57.5
2023-11-01T11:14:08.232Z,57.8
2023-11-01T11:19:49.563Z,58.1
2023-11-01T11:24:41.208Z,58.4
2023-11-01T11:30:03.019Z,58.6
2023-11-01T11:35:27.445Z,58.9
2023-11-01T11:41:04.012Z,59.1
2023-11-01T11:46:09.310Z,59.1
2023-11-01T11:51:46.600Z,59.2
2023-11-01T11:57:08.656Z,59.4
2023-11-01T12:02:32.522Z,59.5
2023-11-01T12:07:38.438Z,59.6
2023-11-01T12:13:30.229Z,59.8
2023-11-01T12:19:07.044Z,59.9
2023-11-01T12:24:44.994Z,60
2023-11-01T12:29:51.297Z,60.1
2023-11-01T12:34:57.529Z,60.1
2023-11-01T12:40:03.483Z,60.1
2023-11-01T12:45:43.236Z,60.1
2023-11-01T12:50:49.436Z,60.1
2023-11-01T12:56:41.511Z,60.1
2023-11-01T13:02:21.439Z,60.1
2023-11-01T13:08:14.980Z,60.1
2023-11-01T13:13:39.938Z,60
2023-11-01T13:19:33.029Z,59.9
2023-11-01T13:25:12.437Z,59.9
2023-11-01T13:31:05.075Z,59.9
2023-11-01T13:36:58.575Z,59.9
2023-11-01T13:42:34.828Z,59.8
2023-11-01T13:47:59.259Z,59.8
2023-11-01T13:53:37.981Z,59.8
2023-11-01T13:59:42.137Z,59.7
2023-11-01T14:05:39.382Z,59.6
2023-11-01T14:11:31.227Z,59.6
2023-11-01T14:17:09.096Z,59.6
2023-11-01T14:23:04.148Z,59.5
2023-11-01T14:28:40.596Z,59.5
2023-11-01T14:34:32.958Z,59.4
2023-11-01T14:40:08.972Z,59.4
2023-11-01T14:46:02.224Z,59.3
2023-11-01T14:51:39.574Z,59.3
2023-11-01T14:57:16.123Z,59.3
2023-11-01T15:03:08.034Z,59.3
2023-11-01T15:08:44.633Z,59.2
2023-11-01T15:14:22.675Z,59.1
2023-11-01T15:20:00.365Z,59.1
2023-11-01T15:25:51.809Z,59.1
2023-11-01T15:31:45.457Z,59
2023-11-01T15:37:43.279Z,59
2023-11-01T15:43:35.419Z,58.9
2023-11-01T15:49:31.994Z,58.9
2023-11-01T15:55:11.970Z,58.9
2023-11-01T16:00:51.210Z,58.8
2023-11-01T16:06:48.662Z,58.8
2023-11-01T16:12:10.296Z,58.7
2023-11-01T16:18:05.882Z,58.7
2023-11-01T16:23:59.965Z,58.6
2023-11-01T16:40:54.382Z,58.5
2023-11-01T16:46:49.866Z,58.4
2023-11-01T16:52:42.037Z,58.4
2023-11-01T16:58:35.463Z,58.4
2023-11-01T17:04:17.787Z,58.3
2023-11-01T17:09:54.533Z,58.3
2023-11-01T17:15:46.284Z,58.2
2023-11-01T17:21:38.778Z,58.2
2023-11-01T17:27:29.695Z,58.1
2023-11-01T17:33:09.344Z,58.1
2023-11-01T17:38:56.354Z,58.1
2023-11-01T17:44:50.532Z,58
2023-11-01T17:50:42.647Z,57.9
2023-11-01T17:56:34.500Z,57.9
2023-11-01T18:02:24.944Z,57.9
2023-11-01T18:07:51.121Z,57.8
2023-11-01T18:24:52.847Z,57.7
2023-11-01T18:30:33.397Z,57.6
2023-11-01T18:36:11.366Z,57.6
2023-11-01T18:41:49.799Z,57.6
2023-11-01T18:47:28.560Z,57.5
2023-11-01T18:53:06.101Z,57.5
2023-11-01T18:58:59.837Z,57.4
2023-11-01T19:04:38.631Z,57.4
2023-11-01T19:10:32.388Z,57.4
2023-11-01T19:16:10.194Z,57.3
2023-11-01T19:22:08.924Z,57.3
2023-11-01T19:28:08.134Z,57.3
2023-11-01T19:33:59.528Z,57.2
2023-11-01T19:39:49.683Z,57.1
2023-11-01T19:45:12.510Z,57.1
2023-11-01T19:50:35.426Z,57.1
2023-11-01T19:56:17.486Z,57
2023-11-01T20:01:40.768Z,56.9
2023-11-01T20:07:20.065Z,56.9
2023-11-01T20:12:58.938Z,56.8
2023-11-01T20:18:29.460Z,56.9
2023-11-01T20:24:23.951Z,56.8
2023-11-01T20:29:49.876Z,56.8
2023-11-01T20:35:27.857Z,56.8
2023-11-01T20:41:05.477Z,56.7
2023-11-01T20:46:43.338Z,56.7
2023-11-01T20:52:21.260Z,56.6
2023-11-01T20:57:43.962Z,56.6
2023-11-01T21:03:22.085Z,56.5
2023-11-01T21:08:44.640Z,56.5
2023-11-01T21:14:25.193Z,56.4
2023-11-01T21:20:02.898Z,56.4
2023-11-01T21:25:28.483Z,56.4
2023-11-01T21:31:05.238Z,56.3
2023-11-01T21:36:54.517Z,56.3
2023-11-01T21:42:30.040Z,56.3
2023-11-01T21:48:17.831Z,56.2
2023-11-01T21:53:39.173Z,56.2
2023-11-01T21:59:10.111Z,56.1
2023-11-01T22:04:41.003Z,56.1
2023-11-01T22:10:02.567Z,56
2023-11-01T22:15:38.429Z,56
2023-11-01T22:21:17.195Z,56
2023-11-01T22:26:53.250Z,55.9
2023-11-01T22:32:46.870Z,55.8
2023-11-01T22:38:24.414Z,55.8
2023-11-01T22:44:01.279Z,55.8
2023-11-01T22:49:54.037Z,55.7
2023-11-01T22:55:58.551Z,55.8
2023-11-01T23:01:35.498Z,55.6
2023-11-01T23:07:27.408Z,55.6
2023-11-01T23:13:04.161Z,55.6
2023-11-01T23:18:40.837Z,55.5
2023-11-01T23:24:18.084Z,55.5
2023-11-01T23:30:06.429Z,55.4
2023-11-01T23:35:43.477Z,55.4
2023-11-01T23:41:29.953Z,55.3
2023-11-01T23:47:06.977Z,55.3
2023-11-01T23:53:34.698Z,55.1
2023-11-01T23:59:26.630Z,55.3
